Time;durP1;ratioP1;P1;durP2;ratioP2;P2;SDS_P1;SDS_P2;PMS_P1;PMS_P2;Temp;Humidity;BMP_temperature;BMP_pressure;BME280_temperature;BME280_humidity;BME280_pressure;Samples;Min_cycle;Max_cycle;Signal;HPM_P1;HPM_P2
2022/06/26 00:01:13;;;;;;;10.82;4.38;;;;;;;;;;7333329;19;162110;-16
2022/06/26 00:03:44;;;;;;;13.77;4.15;;;;;;;;;;7332444;19;162484;-16
2022/06/26 00:06:15;;;;;;;13.45;4.60;;;;;;;;;;7333348;19;153768;-16
2022/06/26 00:08:49;;;;;;;11.02;4.07;;;;;;;;;;7333580;19;153738;-16
2022/06/26 00:11:23;;;;;;;12.70;3.80;;;;;;;;;;7333121;19;161925;-16
2022/06/26 00:14:02;;;;;;;8.73;4.20;;;;;;;;;;7332883;19;162378;-16
2022/06/26 00:16:33;;;;;;;8.82;4.07;;;;;;;;;;7333388;19;154024;-16
2022/06/26 00:19:05;;;;;;;9.25;4.32;;;;;;;;;;7333081;19;153559;-17
2022/06/26 00:21:36;;;;;;;10.20;3.92;;;;;;;;;;7334210;19;161852;-16
2022/06/26 00:24:08;;;;;;;8.70;4.28;;;;;;;;;;7331666;19;162344;-16
2022/06/26 00:26:42;;;;;;;9.63;4.07;;;;;;;;;;7333018;19;154066;-16
2022/06/26 00:29:13;;;;;;;12.95;3.92;;;;;;;;;;7332746;19;153493;-16
2022/06/26 00:31:45;;;;;;;7.67;3.73;;;;;;;;;;7331210;19;161755;-16
2022/06/26 00:34:16;;;;;;;16.10;4.63;;;;;;;;;;7328386;19;162818;-16
2022/06/26 00:36:48;;;;;;;10.50;4.00;;;;;;;;;;7332647;19;154082;-16
2022/06/26 00:39:19;;;;;;;8.20;2.78;;;;;;;;;;7331408;19;153911;-16
2022/06/26 00:41:54;;;;;;;9.43;3.22;;;;;;;;;;7330945;19;162055;-16
2022/06/26 00:44:27;;;;;;;9.45;4.35;;;;;;;;;;7329819;19;162498;-16
2022/06/26 00:46:58;;;;;;;9.73;3.67;;;;;;;;;;7332974;19;154043;-16
2022/06/26 00:49:30;;;;;;;8.25;3.45;;;;;;;;;;7331127;19;153863;-17
2022/06/26 00:52:03;;;;;;;9.32;3.47;;;;;;;;;;7331969;19;161813;-16
2022/06/26 00:54:34;;;;;;;9.98;3.58;;;;;;;;;;7330622;19;162575;-16
2022/06/26 00:57:08;;;;;;;7.97;3.95;;;;;;;;;;7332146;19;154649;-20
2022/06/26 00:59:40;;;;;;;9.60;3.40;;;;;;;;;;7331900;19;153599;-16
2022/06/26 01:02:11;;;;;;;9.20;3.63;;;;;;;;;;7331358;19;161821;-16
2022/06/26 01:04:42;;;;;;;6.53;3.50;;;;;;;;;;7330039;19;162524;-16
2022/06/26 01:07:14;;;;;;;11.02;3.63;;;;;;;;;;7331565;19;154061;-16
2022/06/26 01:09:45;;;;;;;8.40;3.50;;;;;;;;;;7331688;19;153579;-16
2022/06/26 01:12:19;;;;;;;7.45;3.22;;;;;;;;;;7329994;19;162192;-16
2022/06/26 01:14:52;;;;;;;5.90;3.08;;;;;;;;;;7329809;19;162508;-16
2022/06/26 01:17:23;;;;;;;6.95;3.25;;;;;;;;;;7331437;19;154303;-16
2022/06/26 01:19:56;;;;;;;7.05;3.20;;;;;;;;;;7330661;19;153699;-18
2022/06/26 01:22:31;;;;;;;5.17;2.80;;;;;;;;;;7331436;19;161819;-17
2022/06/26 01:25:03;;;;;;;5.47;3.08;;;;;;;;;;7328183;19;162325;-18
2022/06/26 01:27:42;;;;;;;8.52;3.55;;;;;;;;;;7329882;19;154238;-16
2022/06/26 01:30:14;;;;;;;8.10;3.17;;;;;;;;;;7329486;19;153754;-17
2022/06/26 01:32:46;;;;;;;4.85;3.10;;;;;;;;;;7328138;19;161833;-16
2022/06/26 01:35:20;;;;;;;8.60;3.55;;;;;;;;;;7329667;19;132754;-17
2022/06/26 01:38:13;;;;;;;6.70;2.80;;;;;;;;;;7329465;19;154051;-16
2022/06/26 01:40:47;;;;;;;5.88;3.17;;;;;;;;;;7330605;19;153625;-16
2022/06/26 01:43:21;;;;;;;7.40;3.05;;;;;;;;;;7329099;19;161851;-18
2022/06/26 01:45:53;;;;;;;6.80;3.25;;;;;;;;;;7324578;19;162655;-18
2022/06/26 01:48:31;;;;;;;8.15;3.05;;;;;;;;;;7329377;19;154237;-17
2022/06/26 01:51:03;;;;;;;5.90;2.80;;;;;;;;;;7329407;19;153696;-17
2022/06/26 01:53:39;;;;;;;5.78;2.70;;;;;;;;;;7328855;19;162629;-17
2022/06/26 01:56:10;;;;;;;7.68;3.03;;;;;;;;;;7328548;19;162373;-18
2022/06/26 01:58:44;;;;;;;7.30;2.95;;;;;;;;;;7330962;19;154514;-17
2022/06/26 02:01:42;;;;;;;7.90;2.83;;;;;;;;;;7329563;19;153812;-17
2022/06/26 02:04:16;;;;;;;4.40;2.35;;;;;;;;;;7328577;19;161977;-17
2022/06/26 02:06:47;;;;;;;7.43;2.58;;;;;;;;;;7326926;19;162401;-18
2022/06/26 02:14:56;;;;;;;6.95;2.72;;;;;;;;;;7331114;19;161928;-17
2022/06/26 02:17:27;;;;;;;5.00;2.45;;;;;;;;;;7332543;19;162386;-17
2022/06/26 02:19:59;;;;;;;5.63;2.75;;;;;;;;;;7330807;19;154132;-17
2022/06/26 02:22:30;;;;;;;7.25;2.80;;;;;;;;;;7332248;19;153586;-18
2022/06/26 02:25:06;;;;;;;5.20;2.50;;;;;;;;;;7330865;19;161862;-17
2022/06/26 02:27:37;;;;;;;5.25;2.70;;;;;;;;;;7331140;19;162707;-17
2022/06/26 02:30:10;;;;;;;8.68;2.63;;;;;;;;;;7330873;19;154109;-17
2022/06/26 02:32:41;;;;;;;7.00;2.80;;;;;;;;;;7330059;19;153769;-16
2022/06/26 02:35:14;;;;;;;6.18;2.80;;;;;;;;;;7331027;19;161905;-17
2022/06/26 02:37:45;;;;;;;5.38;2.55;;;;;;;;;;7330928;19;162574;-16
2022/06/26 02:40:20;;;;;;;6.43;3.03;;;;;;;;;;7331994;19;154073;-17
2022/06/26 02:42:52;;;;;;;8.13;2.58;;;;;;;;;;7331441;19;153550;-17
2022/06/26 02:45:24;;;;;;;5.32;2.42;;;;;;;;;;7329772;19;162608;-17
2022/06/26 02:47:55;;;;;;;6.07;3.03;;;;;;;;;;7330406;19;162514;-19
2022/06/26 02:50:27;;;;;;;3.65;2.20;;;;;;;;;;7330589;19;154027;-17
2022/06/26 02:52:58;;;;;;;5.05;2.38;;;;;;;;;;7331544;19;153676;-17
2022/06/26 02:55:34;;;;;;;5.57;2.55;;;;;;;;;;7330094;19;161841;-17
2022/06/26 02:58:06;;;;;;;4.90;2.63;;;;;;;;;;7333900;19;162508;-16
2022/06/26 03:00:43;;;;;;;5.40;2.40;;;;;;;;;;7337522;19;154160;-17
2022/06/26 03:03:14;;;;;;;3.47;2.15;;;;;;;;;;7338007;19;153559;-16
2022/06/26 03:05:46;;;;;;;4.35;2.20;;;;;;;;;;7336502;19;162193;-17
2022/06/26 03:08:17;;;;;;;8.15;2.65;;;;;;;;;;7337953;19;162510;-17
2022/06/26 03:10:51;;;;;;;7.03;2.60;;;;;;;;;;7337091;19;154044;-17
2022/06/26 03:13:23;;;;;;;4.03;2.40;;;;;;;;;;7336843;19;153601;-17
2022/06/26 03:15:54;;;;;;;5.07;2.60;;;;;;;;;;7336387;19;161890;-17
2022/06/26 03:18:25;;;;;;;5.25;2.60;;;;;;;;;;7336171;19;162254;-18
2022/06/26 03:20:58;;;;;;;;;;;;;;;;;;7337078;19;154293;-18
2022/06/26 03:26:16;;;;;;;5.15;2.40;;;;;;;;;;7335109;19;162206;-17
2022/06/26 03:28:47;;;;;;;2.75;2.05;;;;;;;;;;7336123;19;162649;-17
2022/06/26 03:31:18;;;;;;;6.38;2.45;;;;;;;;;;7336249;19;154301;-18
2022/06/26 03:33:50;;;;;;;8.13;2.92;;;;;;;;;;7335013;19;153650;-17
2022/06/26 03:36:23;;;;;;;4.13;2.45;;;;;;;;;;7335918;19;161876;-25
2022/06/26 03:38:57;;;;;;;4.95;2.38;;;;;;;;;;7335930;19;162393;-17
2022/06/26 03:41:31;;;;;;;8.13;2.47;;;;;;;;;;7336153;19;154274;-17
2022/06/26 03:44:03;;;;;;;4.32;2.40;;;;;;;;;;7337172;19;153811;-16
2022/06/26 03:46:34;;;;;;;4.20;1.75;;;;;;;;;;7335591;19;161809;-16
2022/06/26 03:49:06;;;;;;;;;;;;;;;;;;7337380;19;162508;-17
2022/06/26 03:51:39;;;;;;;4.15;2.63;;;;;;;;;;7335707;19;154477;-17
2022/06/26 03:54:10;;;;;;;5.25;2.30;;;;;;;;;;7337309;19;153531;-16
2022/06/26 03:56:44;;;;;;;7.15;2.30;;;;;;;;;;7336656;19;162365;-17
2022/06/26 03:59:15;;;;;;;4.30;2.17;;;;;;;;;;7334375;19;162764;-15
2022/06/26 04:01:48;;;;;;;4.05;2.50;;;;;;;;;;7335404;19;154120;-16
2022/06/26 04:04:20;;;;;;;6.15;2.22;;;;;;;;;;7335123;19;153965;-18
2022/06/26 04:06:54;;;;;;;4.20;2.33;;;;;;;;;;7335084;19;162146;-15
2022/06/26 04:09:32;;;;;;;5.68;2.42;;;;;;;;;;7332566;19;162405;-16
2022/06/26 04:12:08;;;;;;;5.97;2.47;;;;;;;;;;7335547;19;154101;-16
2022/06/26 04:14:44;;;;;;;5.93;2.80;;;;;;;;;;7334966;19;153893;-16
2022/06/26 04:17:15;;;;;;;4.53;1.90;;;;;;;;;;7334134;19;162200;-15
2022/06/26 04:19:59;;;;;;;7.78;2.17;;;;;;;;;;7334972;19;162523;-15
2022/06/26 04:22:30;;;;;;;5.20;2.00;;;;;;;;;;7334792;19;154236;-16
2022/06/26 04:25:02;;;;;;;5.07;2.55;;;;;;;;;;7334992;19;153596;-16
2022/06/26 04:27:35;;;;;;;5.63;2.15;;;;;;;;;;7332894;19;161821;-16
2022/06/26 04:30:09;;;;;;;7.63;2.50;;;;;;;;;;7334402;19;162510;-16
2022/06/26 04:32:41;;;;;;;7.90;2.20;;;;;;;;;;7334169;19;154002;-15
2022/06/26 04:35:13;;;;;;;5.78;2.15;;;;;;;;;;7334176;19;153639;-15
2022/06/26 04:37:46;;;;;;;4.90;2.30;;;;;;;;;;7334075;19;161870;-16
2022/06/26 04:40:18;;;;;;;5.10;2.25;;;;;;;;;;7330882;19;162418;-16
2022/06/26 04:42:52;;;;;;;6.63;2.60;;;;;;;;;;7331115;19;154053;-15
2022/06/26 04:45:25;;;;;;;5.22;2.30;;;;;;;;;;7330926;19;153837;-16
2022/06/26 04:48:00;;;;;;;4.95;2.17;;;;;;;;;;7330770;19;161709;-16
2022/06/26 04:50:31;;;;;;;5.72;2.30;;;;;;;;;;7330679;19;162381;-15
2022/06/26 04:53:02;;;;;;;4.30;2.15;;;;;;;;;;7330892;19;154236;-17
2022/06/26 04:55:34;;;;;;;4.57;2.05;;;;;;;;;;7330703;19;153584;-16
2022/06/26 04:58:09;;;;;;;4.63;2.45;;;;;;;;;;7330670;19;162522;-16
2022/06/26 05:00:40;;;;;;;4.85;2.25;;;;;;;;;;7330455;19;162579;-16
2022/06/26 05:03:28;;;;;;;4.28;2.00;;;;;;;;;;7330537;19;154174;-16
2022/06/26 05:06:19;;;;;;;4.75;2.10;;;;;;;;;;7331773;19;153924;-16
2022/06/26 05:09:02;;;;;;;6.05;2.22;;;;;;;;;;7326924;19;161810;-16
2022/06/26 05:11:33;;;;;;;9.90;2.85;;;;;;;;;;7330010;19;162460;-16
2022/06/26 05:14:07;;;;;;;4.88;2.72;;;;;;;;;;7330137;19;154092;-16
2022/06/26 05:17:14;;;;;;;7.15;2.65;;;;;;;;;;7331185;19;153750;-16
2022/06/26 05:19:45;;;;;;;4.95;2.05;;;;;;;;;;7329438;19;161877;-16
2022/06/26 05:22:17;;;;;;;3.45;1.85;;;;;;;;;;7327342;19;162548;-16
2022/06/26 05:24:49;;;;;;;5.35;2.33;;;;;;;;;;7329875;19;154295;-17
2022/06/26 05:27:20;;;;;;;4.60;2.60;;;;;;;;;;7329543;19;153682;-17
2022/06/26 05:29:54;;;;;;;6.30;2.22;;;;;;;;;;7333714;19;162030;-16
2022/06/26 05:32:26;;;;;;;5.88;2.55;;;;;;;;;;7329978;19;162585;-16
2022/06/26 05:34:59;;;;;;;6.43;2.10;;;;;;;;;;7329663;19;154231;-16
2022/06/26 05:37:30;;;;;;;3.83;1.95;;;;;;;;;;7329665;19;153499;-15
2022/06/26 05:40:01;;;;;;;6.95;2.13;;;;;;;;;;7329645;19;161598;-16
2022/06/26 05:42:37;;;;;;;6.43;2.00;;;;;;;;;;7329164;19;162205;-16
2022/06/26 05:45:14;;;;;;;4.03;2.05;;;;;;;;;;7330752;19;154271;-16
2022/06/26 05:48:01;;;;;;;5.97;1.95;;;;;;;;;;7328515;19;153589;-16
2022/06/26 05:51:06;;;;;;;6.43;2.20;;;;;;;;;;7329020;19;162184;-15
2022/06/26 05:53:40;;;;;;;3.70;2.03;;;;;;;;;;7328850;19;162415;-20
2022/06/26 05:56:47;;;;;;;5.65;2.20;;;;;;;;;;7329663;19;154309;-16
2022/06/26 05:59:25;;;;;;;3.13;1.70;;;;;;;;;;7332173;19;153616;-16
2022/06/26 06:02:10;;;;;;;4.60;2.10;;;;;;;;;;7329824;19;162086;-16
2022/06/26 06:04:42;;;;;;;2.92;1.60;;;;;;;;;;7328584;19;162464;-16
2022/06/26 06:07:14;;;;;;;;;;;;;;;;;;7330287;19;154585;-16
2022/06/26 06:09:45;;;;;;;6.15;2.10;;;;;;;;;;7326219;19;153617;-16
2022/06/26 06:12:16;;;;;;;6.35;2.38;;;;;;;;;;7328891;19;161771;-16
2022/06/26 06:14:48;;;;;;;4.83;1.97;;;;;;;;;;7328311;19;162395;-16
2022/06/26 06:20:08;;;;;;;5.30;1.90;;;;;;;;;;7328426;19;153577;-17
2022/06/26 06:22:43;;;;;;;4.13;1.98;;;;;;;;;;7329696;19;161808;-17
2022/06/26 06:25:15;;;;;;;;;;;;;;;;;;7329624;19;162401;-16
2022/06/26 06:27:46;;;;;;;3.58;1.52;;;;;;;;;;7329267;19;154186;-16
2022/06/26 06:30:21;;;;;;;3.97;1.80;;;;;;;;;;7328350;19;153692;-17
2022/06/26 06:32:56;;;;;;;5.97;2.03;;;;;;;;;;7325308;19;162097;-17
2022/06/26 06:35:38;;;;;;;2.47;1.70;;;;;;;;;;7327750;19;162492;-18
2022/06/26 06:38:10;;;;;;;7.05;1.90;;;;;;;;;;7327872;19;154036;-18
2022/06/26 06:40:42;;;;;;;2.53;1.85;;;;;;;;;;7327878;19;153942;-18
2022/06/26 06:43:16;;;;;;;3.67;2.10;;;;;;;;;;7327403;19;161995;-18
2022/06/26 06:46:06;;;;;;;4.30;1.80;;;;;;;;;;7328686;19;162456;-17
2022/06/26 06:48:40;;;;;;;3.17;1.60;;;;;;;;;;7328608;19;154037;-16
2022/06/26 06:51:27;;;;;;;5.20;1.92;;;;;;;;;;7327574;19;153653;-17
2022/06/26 06:53:59;;;;;;;4.32;2.28;;;;;;;;;;7327032;19;161860;-15
2022/06/26 06:56:32;;;;;;;3.38;1.60;;;;;;;;;;7327530;19;163144;-17
2022/06/26 06:59:03;;;;;;;4.50;2.10;;;;;;;;;;7328748;19;154039;-16
2022/06/26 07:01:35;;;;;;;4.13;1.42;;;;;;;;;;7327471;19;153755;-18
2022/06/26 07:04:09;;;;;;;3.85;1.60;;;;;;;;;;7326947;19;162049;-16
2022/06/26 07:06:40;;;;;;;10.48;2.13;;;;;;;;;;7326788;19;162438;-18
2022/06/26 07:09:13;;;;;;;4.45;2.08;;;;;;;;;;7325884;19;154077;-16
2022/06/26 07:11:44;;;;;;;3.97;1.52;;;;;;;;;;7327993;19;153544;-17
2022/06/26 07:14:16;;;;;;;6.03;1.73;;;;;;;;;;7326397;19;161767;-18
2022/06/26 07:16:47;;;;;;;6.28;2.00;;;;;;;;;;7327515;19;162272;-18
2022/06/26 07:19:24;;;;;;;4.03;2.17;;;;;;;;;;7326675;19;153903;-18
2022/06/26 07:21:55;;;;;;;4.68;1.88;;;;;;;;;;7327712;19;153662;-17
2022/06/26 07:24:27;;;;;;;7.60;2.63;;;;;;;;;;7326287;19;161823;-17
2022/06/26 07:27:17;;;;;;;4.20;2.22;;;;;;;;;;7325954;19;162431;-18
2022/06/26 07:29:49;;;;;;;3.50;2.00;;;;;;;;;;7324724;19;154028;-18
2022/06/26 07:32:21;;;;;;;5.70;2.22;;;;;;;;;;7325670;19;153292;-18
2022/06/26 07:34:58;;;;;;;2.95;1.60;;;;;;;;;;7325890;19;162276;-17
2022/06/26 07:37:30;;;;;;;3.33;1.70;;;;;;;;;;7325640;19;162453;-18
2022/06/26 07:40:01;;;;;;;3.22;1.50;;;;;;;;;;7325839;19;153883;-17
2022/06/26 07:42:33;;;;;;;;;;;;;;;;;;7326389;19;153713;-17
2022/06/26 07:45:06;;;;;;;4.30;1.77;;;;;;;;;;7329289;19;162199;-17
2022/06/26 07:47:52;;;;;;;3.30;1.83;;;;;;;;;;7332093;19;162566;-16
2022/06/26 07:50:27;;;;;;;5.22;1.75;;;;;;;;;;7330710;19;154001;-17
2022/06/26 07:52:59;;;;;;;3.78;1.70;;;;;;;;;;7332554;19;153522;-16
2022/06/26 07:55:30;;;;;;;5.95;2.20;;;;;;;;;;7332320;19;162077;-18
2022/06/26 07:58:01;;;;;;;2.25;1.92;;;;;;;;;;7333464;19;162401;-17
2022/06/26 08:00:33;;;;;;;6.53;1.73;;;;;;;;;;7333670;19;154012;-17
2022/06/26 08:03:08;;;;;;;4.22;1.83;;;;;;;;;;7333814;19;153550;-15
2022/06/26 08:05:43;;;;;;;3.67;1.67;;;;;;;;;;7333214;19;161919;-16
2022/06/26 08:08:14;;;;;;;6.63;2.08;;;;;;;;;;7333221;19;163175;-17
2022/06/26 08:10:45;;;;;;;4.70;2.10;;;;;;;;;;7331732;19;154228;-17
2022/06/26 08:13:16;;;;;;;6.72;1.88;;;;;;;;;;7333150;19;153641;-17
2022/06/26 08:15:47;;;;;;;5.47;1.90;;;;;;;;;;7335202;19;162124;-16
2022/06/26 08:18:19;;;;;;;5.00;1.90;;;;;;;;;;7332886;19;162095;-17
2022/06/26 08:20:53;;;;;;;4.57;2.22;;;;;;;;;;7333095;19;154114;-16
2022/06/26 08:23:24;;;;;;;7.65;1.75;;;;;;;;;;7332347;19;153946;-17
2022/06/26 08:25:55;;;;;;;4.45;1.75;;;;;;;;;;7333177;19;162034;-17
2022/06/26 08:28:26;;;;;;;5.68;1.80;;;;;;;;;;7332343;19;162352;-17
2022/06/26 08:30:57;;;;;;;3.80;1.40;;;;;;;;;;7329452;19;154119;-18
2022/06/26 08:33:29;;;;;;;4.80;2.10;;;;;;;;;;7331103;19;153875;-16
2022/06/26 08:36:04;;;;;;;2.70;1.85;;;;;;;;;;7332242;19;161795;-17
2022/06/26 08:38:35;;;;;;;4.35;1.90;;;;;;;;;;7332072;19;162652;-17
2022/06/26 08:41:06;;;;;;;3.35;1.90;;;;;;;;;;7332416;19;154067;-16
2022/06/26 08:43:41;;;;;;;4.00;2.03;;;;;;;;;;7332491;19;153465;-17
2022/06/26 08:46:12;;;;;;;3.45;1.90;;;;;;;;;;7335797;19;161882;-17
2022/06/26 08:48:45;;;;;;;4.70;1.80;;;;;;;;;;7331796;19;162379;-17
2022/06/26 08:51:19;;;;;;;4.82;2.05;;;;;;;;;;7330062;19;154170;-17
2022/06/26 08:53:53;;;;;;;4.35;1.75;;;;;;;;;;7332001;19;153703;-17
2022/06/26 08:56:24;;;;;;;3.83;1.77;;;;;;;;;;7330252;19;161796;-16
2022/06/26 08:58:57;;;;;;;4.55;1.80;;;;;;;;;;7331250;19;162450;-17
2022/06/26 09:01:28;;;;;;;3.78;1.95;;;;;;;;;;7331873;19;154106;-17
2022/06/26 09:03:59;;;;;;;5.43;1.60;;;;;;;;;;7331784;19;153518;-16
2022/06/26 09:06:35;;;;;;;5.80;1.63;;;;;;;;;;7334229;19;162001;-18
2022/06/26 09:09:16;;;;;;;3.58;1.80;;;;;;;;;;7331437;19;162606;-17
2022/06/26 09:11:49;;;;;;;4.40;1.63;;;;;;;;;;7327809;19;154258;-16
2022/06/26 09:14:20;;;;;;;4.15;2.17;;;;;;;;;;7331404;19;153797;-17
2022/06/26 09:16:54;;;;;;;4.60;1.38;;;;;;;;;;7331075;19;161820;-16
2022/06/26 09:19:29;;;;;;;2.25;1.30;;;;;;;;;;7330949;19;162323;-17
2022/06/26 09:22:12;;;;;;;1.83;1.50;;;;;;;;;;7331172;19;154094;-15
2022/06/26 09:24:56;;;;;;;3.58;1.70;;;;;;;;;;7331134;19;153403;-17
2022/06/26 09:27:28;;;;;;;4.50;1.73;;;;;;;;;;7330713;19;161966;-16
2022/06/26 09:29:59;;;;;;;5.85;1.55;;;;;;;;;;7330242;19;162286;-16
2022/06/26 09:32:34;;;;;;;3.25;1.92;;;;;;;;;;7330430;19;154473;-18
2022/06/26 09:35:06;;;;;;;3.78;1.77;;;;;;;;;;7330966;19;153921;-17
2022/06/26 09:37:39;;;;;;;3.15;1.42;;;;;;;;;;7330356;19;161968;-18
2022/06/26 09:40:27;;;;;;;3.38;1.73;;;;;;;;;;7330377;19;162373;-17
2022/06/26 09:42:58;;;;;;;3.13;1.50;;;;;;;;;;7330713;19;154332;-16
2022/06/26 09:45:41;;;;;;;4.80;1.70;;;;;;;;;;7330707;19;153492;-17
2022/06/26 09:48:13;;;;;;;2.85;1.42;;;;;;;;;;7330301;19;161876;-17
2022/06/26 09:50:48;;;;;;;3.75;1.63;;;;;;;;;;7329016;19;162434;-15
2022/06/26 09:53:23;;;;;;;3.28;1.45;;;;;;;;;;7328922;19;154079;-16
2022/06/26 09:55:56;;;;;;;3.40;1.67;;;;;;;;;;7330151;19;153538;-16
2022/06/26 09:58:29;;;;;;;9.68;1.75;;;;;;;;;;7329953;19;162115;-16
2022/06/26 10:06:32;;;;;;;1.70;1.60;;;;;;;;;;7328513;19;153530;-17
2022/06/26 10:09:09;;;;;;;2.20;1.45;;;;;;;;;;7329414;19;161969;-16
2022/06/26 10:11:45;;;;;;;2.67;1.50;;;;;;;;;;7331696;19;162699;-16
2022/06/26 10:14:20;;;;;;;4.05;1.38;;;;;;;;;;7334249;19;153993;-17
2022/06/26 10:17:16;;;;;;;3.45;1.40;;;;;;;;;;7331049;19;153634;-16
2022/06/26 10:19:49;;;;;;;2.50;1.42;;;;;;;;;;7329114;19;161951;-16
2022/06/26 10:22:21;;;;;;;2.03;1.45;;;;;;;;;;7328915;19;162833;-16
2022/06/26 10:25:00;;;;;;;2.58;1.55;;;;;;;;;;7332837;19;154052;-17
2022/06/26 10:27:33;;;;;;;1.88;1.48;;;;;;;;;;7329366;19;153743;-16
2022/06/26 10:30:10;;;;;;;3.85;1.63;;;;;;;;;;7331410;19;161531;-16
2022/06/26 10:32:41;;;;;;;4.15;1.80;;;;;;;;;;7329346;19;162537;-16
2022/06/26 10:35:13;;;;;;;2.42;1.30;;;;;;;;;;7329068;19;154197;-16
2022/06/26 10:37:46;;;;;;;2.78;1.70;;;;;;;;;;7329102;19;153782;-17
2022/06/26 10:43:06;;;;;;;2.25;1.30;;;;;;;;;;7328638;19;162720;-15
2022/06/26 10:45:39;;;;;;;1.55;1.30;;;;;;;;;;7328728;19;154091;-16
2022/06/26 10:48:24;;;;;;;3.25;1.20;;;;;;;;;;7328793;19;153624;-16
2022/06/26 10:51:01;;;;;;;2.70;1.40;;;;;;;;;;7328130;19;161856;-16
2022/06/26 10:53:33;;;;;;;2.33;1.35;;;;;;;;;;7327063;19;162547;-16
2022/06/26 10:56:09;;;;;;;1.90;1.20;;;;;;;;;;7328516;19;153996;-16
2022/06/26 10:58:43;;;;;;;2.60;1.50;;;;;;;;;;7328501;19;153533;-16
2022/06/26 11:01:16;;;;;;;1.95;1.27;;;;;;;;;;7328133;19;162165;-17
2022/06/26 11:03:48;;;;;;;3.13;1.30;;;;;;;;;;7327888;19;163057;-16
2022/06/26 11:06:19;;;;;;;3.83;1.53;;;;;;;;;;7328038;19;153997;-17
2022/06/26 11:08:52;;;;;;;3.05;1.40;;;;;;;;;;7327988;19;153581;-17
2022/06/26 11:11:31;;;;;;;3.10;1.35;;;;;;;;;;7326874;19;161841;-16
2022/06/26 11:14:06;;;;;;;1.20;1.10;;;;;;;;;;7331663;19;162381;-17
2022/06/26 11:16:41;;;;;;;1.70;1.20;;;;;;;;;;7327495;19;154274;-16
2022/06/26 11:19:24;;;;;;;2.00;1.20;;;;;;;;;;7330319;19;153483;-16
2022/06/26 11:22:06;;;;;;;2.37;1.37;;;;;;;;;;7334016;19;162035;-16
2022/06/26 11:24:39;;;;;;;3.17;1.48;;;;;;;;;;7334372;19;162604;-15
2022/06/26 11:27:15;;;;;;;3.60;1.30;;;;;;;;;;7333627;19;154230;-16
2022/06/26 11:29:49;;;;;;;2.25;1.60;;;;;;;;;;7334348;19;153528;-16
2022/06/26 11:32:23;;;;;;;2.05;1.27;;;;;;;;;;7332477;19;161844;-16
2022/06/26 11:34:56;;;;;;;1.40;1.30;;;;;;;;;;7333735;19;162330;-16
2022/06/26 11:37:35;;;;;;;1.58;1.30;;;;;;;;;;7334061;19;154042;-16
2022/06/26 11:40:14;;;;;;;3.72;1.67;;;;;;;;;;7334286;19;153468;-16
2022/06/26 11:42:48;;;;;;;2.00;1.00;;;;;;;;;;7333859;19;161765;-16
2022/06/26 11:45:24;;;;;;;2.35;1.40;;;;;;;;;;7333486;19;162502;-17
2022/06/26 11:47:56;;;;;;;2.25;1.27;;;;;;;;;;7334046;19;154103;-16
2022/06/26 11:50:30;;;;;;;1.33;1.00;;;;;;;;;;7333999;19;153575;-16
2022/06/26 11:53:03;;;;;;;1.70;1.20;;;;;;;;;;7331609;19;161872;-16
2022/06/26 11:55:36;;;;;;;1.30;1.17;;;;;;;;;;7333209;19;162341;-17
2022/06/26 11:58:10;;;;;;;3.58;1.42;;;;;;;;;;7333775;19;154058;-17
2022/06/26 12:00:41;;;;;;;1.55;1.45;;;;;;;;;;7333555;19;153647;-16
2022/06/26 12:03:14;;;;;;;2.03;1.13;;;;;;;;;;7333036;19;161810;-16
2022/06/26 12:05:46;;;;;;;2.63;1.55;;;;;;;;;;7333116;19;162537;-16
2022/06/26 12:08:20;;;;;;;3.65;1.20;;;;;;;;;;7333506;19;154192;-16
2022/06/26 12:10:55;;;;;;;2.50;1.42;;;;;;;;;;7333178;19;153608;-16
2022/06/26 12:13:31;;;;;;;1.30;1.20;;;;;;;;;;7331030;19;162102;-17
2022/06/26 12:16:05;;;;;;;1.58;1.30;;;;;;;;;;7332905;19;162379;-16
2022/06/26 12:18:40;;;;;;;1.30;1.20;;;;;;;;;;7333265;19;154078;-16
2022/06/26 12:21:18;;;;;;;2.25;1.40;;;;;;;;;;7333052;19;153505;-17
2022/06/26 12:23:50;;;;;;;1.63;1.00;;;;;;;;;;7332836;19;162168;-16
2022/06/26 12:26:24;;;;;;;1.48;1.10;;;;;;;;;;7333467;19;162381;-16
2022/06/26 12:29:00;;;;;;;2.25;1.48;;;;;;;;;;7333017;19;154165;-17
2022/06/26 12:31:31;;;;;;;2.47;1.60;;;;;;;;;;7330860;19;153840;-17
2022/06/26 12:34:04;;;;;;;3.50;1.73;;;;;;;;;;7328325;19;162132;-17
2022/06/26 12:36:37;;;;;;;1.70;1.40;;;;;;;;;;7332321;19;162399;-16
2022/06/26 12:39:09;;;;;;;;;;;;;;;;;;7333185;19;154415;-16
2022/06/26 12:41:50;;;;;;;2.25;1.13;;;;;;;;;;7332396;19;153248;-16
2022/06/26 12:44:24;;;;;;;2.97;1.10;;;;;;;;;;7332110;19;161808;-15
2022/06/26 12:46:55;;;;;;;2.58;1.30;;;;;;;;;;7332248;19;162423;-19
2022/06/26 12:49:26;;;;;;;1.52;0.85;;;;;;;;;;7332580;19;154095;-16
2022/06/26 12:51:57;;;;;;;1.67;1.20;;;;;;;;;;7332371;19;153771;-16
2022/06/26 12:54:29;;;;;;;1.23;1.08;;;;;;;;;;7329223;19;161961;-16
2022/06/26 12:57:00;;;;;;;1.58;1.17;;;;;;;;;;7331797;19;162157;-16
2022/06/26 12:59:34;;;;;;;1.67;1.20;;;;;;;;;;7330837;19;154140;-16
2022/06/26 13:02:05;;;;;;;1.70;1.23;;;;;;;;;;7331842;19;153548;-16
2022/06/26 13:04:36;;;;;;;6.10;1.45;;;;;;;;;;7331591;19;161801;-16
2022/06/26 13:07:08;;;;;;;2.17;1.15;;;;;;;;;;7331448;19;162477;-15
2022/06/26 13:09:40;;;;;;;3.50;1.30;;;;;;;;;;7331893;19;153819;-17
2022/06/26 13:12:11;;;;;;;4.65;1.20;;;;;;;;;;7331638;19;153646;-17
2022/06/26 13:14:45;;;;;;;1.42;1.20;;;;;;;;;;7328534;19;161785;-17
2022/06/26 13:17:16;;;;;;;1.20;1.10;;;;;;;;;;7331083;19;162371;-17
2022/06/26 13:19:47;;;;;;;2.33;1.45;;;;;;;;;;7331682;19;154083;-18
2022/06/26 13:22:19;;;;;;;1.98;1.10;;;;;;;;;;7335858;19;153529;-18
2022/06/26 13:24:50;;;;;;;2.10;1.33;;;;;;;;;;7330878;19;162202;-17
2022/06/26 13:27:21;;;;;;;3.50;1.25;;;;;;;;;;7331117;19;162310;-16
2022/06/26 13:29:55;;;;;;;2.03;1.33;;;;;;;;;;7331505;19;154082;-16
2022/06/26 13:32:27;;;;;;;1.67;1.05;;;;;;;;;;7330774;19;153452;-18
2022/06/26 13:34:58;;;;;;;1.35;1.25;;;;;;;;;;7328034;19;161972;-15
2022/06/26 13:37:30;;;;;;;2.92;1.60;;;;;;;;;;7331200;19;162323;-16
2022/06/26 13:40:01;;;;;;;1.77;1.23;;;;;;;;;;7330726;19;154197;-16
2022/06/26 13:42:32;;;;;;;2.45;1.45;;;;;;;;;;7329570;19;153632;-16
2022/06/26 13:45:07;;;;;;;2.72;1.15;;;;;;;;;;7330416;19;161551;-16
2022/06/26 13:47:41;;;;;;;1.92;1.33;;;;;;;;;;7330332;19;163057;-16
2022/06/26 13:50:13;;;;;;;2.30;1.52;;;;;;;;;;7330686;19;154409;-16
2022/06/26 13:52:44;;;;;;;2.33;1.00;;;;;;;;;;7330709;19;153486;-16
2022/06/26 13:55:15;;;;;;;2.00;1.20;;;;;;;;;;7330354;19;162086;-16
2022/06/26 13:57:47;;;;;;;2.92;1.17;;;;;;;;;;7330003;19;162863;-16
2022/06/26 14:00:21;;;;;;;1.10;0.98;;;;;;;;;;7330359;19;154023;-17
2022/06/26 14:02:52;;;;;;;2.30;1.42;;;;;;;;;;7330162;19;153671;-17
2022/06/26 14:05:23;;;;;;;3.08;1.25;;;;;;;;;;7329590;19;162011;-16
2022/06/26 14:07:55;;;;;;;2.45;1.30;;;;;;;;;;7329511;19;162510;-15
2022/06/26 14:10:26;;;;;;;2.30;1.30;;;;;;;;;;7329968;19;154081;-15
2022/06/26 14:12:57;;;;;;;2.30;1.42;;;;;;;;;;7329705;19;153859;-16
2022/06/26 14:15:31;;;;;;;2.28;1.33;;;;;;;;;;7329509;19;162326;-16
2022/06/26 14:18:03;;;;;;;4.30;1.30;;;;;;;;;;7329502;19;162412;-16
2022/06/26 14:20:34;;;;;;;2.05;1.00;;;;;;;;;;7328345;19;154079;-15
2022/06/26 14:26:03;;;;;;;3.00;1.50;;;;;;;;;;7329332;19;161797;-16
2022/06/26 14:28:36;;;;;;;4.13;1.25;;;;;;;;;;7328972;19;162344;-15
2022/06/26 14:31:11;;;;;;;4.22;1.20;;;;;;;;;;7329177;19;154795;-16
2022/06/26 14:33:43;;;;;;;2.10;1.23;;;;;;;;;;7326656;19;153572;-16
2022/06/26 14:36:15;;;;;;;2.38;1.00;;;;;;;;;;7328437;19;162092;-16
2022/06/26 14:38:46;;;;;;;4.40;1.70;;;;;;;;;;7328387;19;162607;-15
2022/06/26 14:41:20;;;;;;;1.23;0.85;;;;;;;;;;7327751;19;154442;-16
2022/06/26 14:43:52;;;;;;;4.03;1.20;;;;;;;;;;7328666;19;153567;-16
2022/06/26 14:46:27;;;;;;;2.63;1.10;;;;;;;;;;7328097;19;162327;-16
2022/06/26 14:48:58;;;;;;;2.67;1.05;;;;;;;;;;7327961;19;162457;-16
2022/06/26 14:51:31;;;;;;;2.58;0.90;;;;;;;;;;7328531;19;154107;-16
2022/06/26 14:54:02;;;;;;;;;;;;;;;;;;7330857;19;153514;-16
2022/06/26 14:56:33;;;;;;;2.28;1.38;;;;;;;;;;7335138;19;161992;-17
2022/06/26 14:59:04;;;;;;;2.20;0.93;;;;;;;;;;7334960;19;162390;-18
2022/06/26 15:01:38;;;;;;;1.92;1.10;;;;;;;;;;7335223;19;154122;-16
2022/06/26 15:04:09;;;;;;;1.95;0.90;;;;;;;;;;7335060;19;153597;-16
2022/06/26 15:06:41;;;;;;;1.65;0.90;;;;;;;;;;7334784;19;162098;-16
2022/06/26 15:09:12;;;;;;;2.83;1.15;;;;;;;;;;7334769;19;162441;-16
2022/06/26 15:11:44;;;;;;;2.90;1.05;;;;;;;;;;7335140;19;154156;-15
2022/06/26 15:14:17;;;;;;;3.22;1.27;;;;;;;;;;7334050;19;153601;-15
2022/06/26 15:16:51;;;;;;;1.30;1.17;;;;;;;;;;7337237;19;161936;-16
2022/06/26 15:19:22;;;;;;;3.88;0.95;;;;;;;;;;7334187;19;162659;-17
2022/06/26 15:21:53;;;;;;;2.80;1.00;;;;;;;;;;7334660;19;153997;-17
2022/06/26 15:24:26;;;;;;;2.33;1.08;;;;;;;;;;7334141;19;153650;-17
2022/06/26 15:26:57;;;;;;;2.08;1.27;;;;;;;;;;7334171;19;161751;-17
2022/06/26 15:29:39;;;;;;;2.80;1.43;;;;;;;;;;7334104;19;162531;-17
2022/06/26 15:32:15;;;;;;;3.35;1.20;;;;;;;;;;7333942;19;154006;-17